createdAt,value
2023-03-10T00:01:02.594Z,8.70
2023-03-10T00:03:29.062Z,8.70
2023-03-10T00:05:55.614Z,8.70
2023-03-10T00:08:22.117Z,8.70
2023-03-10T00:10:52.339Z,8.70
2023-03-10T00:13:18.837Z,8.70
2023-03-10T00:15:45.357Z,8.70
2023-03-10T00:18:11.880Z,8.70
2023-03-10T00:20:38.374Z,8.70
2023-03-10T00:23:04.855Z,8.70
2023-03-10T00:25:31.329Z,8.70
2023-03-10T00:27:57.802Z,8.70
2023-03-10T00:30:24.277Z,8.70
2023-03-10T00:32:50.847Z,8.70
2023-03-10T00:35:17.377Z,8.70
2023-03-10T00:37:43.864Z,8.70
2023-03-10T00:40:10.355Z,8.70
2023-03-10T00:42:36.819Z,8.70
2023-03-10T00:45:03.326Z,8.80
2023-03-10T00:47:29.836Z,8.70
2023-03-10T00:49:56.314Z,8.70
2023-03-10T00:52:22.802Z,8.80
2023-03-10T00:54:49.329Z,8.70
2023-03-10T00:57:15.823Z,8.80
2023-03-10T00:59:50.403Z,8.80
2023-03-10T01:02:17.346Z,8.80
2023-03-10T01:04:44.014Z,8.80
2023-03-10T01:07:10.554Z,8.80
2023-03-10T01:09:37.038Z,8.80
2023-03-10T01:12:03.523Z,8.80
2023-03-10T01:14:30.006Z,8.80
2023-03-10T01:16:56.752Z,8.80
2023-03-10T01:19:23.265Z,8.80
2023-03-10T01:21:49.761Z,8.80
2023-03-10T01:24:16.236Z,8.80
2023-03-10T01:26:42.726Z,8.80
2023-03-10T01:29:09.209Z,8.80
2023-03-10T01:31:35.678Z,8.80
2023-03-10T01:34:02.222Z,8.80
2023-03-10T01:36:28.722Z,8.80
2023-03-10T01:38:58.424Z,8.80
2023-03-10T01:41:24.926Z,8.80
2023-03-10T01:43:51.421Z,8.80
2023-03-10T01:46:17.926Z,8.80
2023-03-10T01:48:44.484Z,8.90
2023-03-10T01:51:10.963Z,8.90
2023-03-10T01:53:37.462Z,8.90
2023-03-10T01:56:03.951Z,8.80
2023-03-10T01:58:30.466Z,8.80
2023-03-10T02:00:56.972Z,8.90
2023-03-10T02:03:23.731Z,8.90
2023-03-10T02:05:50.219Z,8.90
2023-03-10T02:08:22.438Z,8.90
2023-03-10T02:10:48.914Z,8.90
2023-03-10T02:13:15.424Z,8.90
2023-03-10T02:15:41.906Z,8.90
2023-03-10T02:18:08.500Z,8.90
2023-03-10T02:20:35.046Z,8.90
2023-03-10T02:23:01.518Z,9.00
2023-03-10T02:25:28.011Z,8.90
2023-03-10T02:27:54.496Z,8.90
2023-03-10T02:30:20.973Z,8.90
2023-03-10T02:32:52.729Z,9.00
2023-03-10T02:35:19.301Z,8.90
2023-03-10T02:37:45.773Z,8.90
2023-03-10T02:40:12.248Z,8.90
2023-03-10T02:42:38.742Z,8.90
2023-03-10T02:45:05.232Z,8.90
2023-03-10T02:47:31.694Z,8.90
2023-03-10T02:49:58.196Z,8.90
2023-03-10T02:52:24.673Z,8.90
2023-03-10T02:54:51.186Z,8.90
2023-03-10T02:57:17.654Z,8.90
2023-03-10T02:59:44.144Z,8.90
2023-03-10T03:02:10.617Z,8.90
2023-03-10T03:04:37.131Z,8.90
2023-03-10T03:07:03.606Z,8.90
2023-03-10T03:09:30.106Z,8.90
2023-03-10T03:11:56.584Z,8.90
2023-03-10T03:14:23.102Z,8.90
2023-03-10T03:16:49.635Z,8.90
2023-03-10T03:19:16.123Z,8.90
2023-03-10T03:21:42.603Z,8.90
2023-03-10T03:24:09.077Z,8.90
2023-03-10T03:26:35.570Z,8.90
2023-03-10T03:29:02.089Z,8.90
2023-03-10T03:31:28.596Z,8.90
2023-03-10T03:33:55.078Z,8.90
2023-03-10T03:36:21.565Z,9.00
2023-03-10T03:38:48.035Z,8.90
2023-03-10T03:41:14.515Z,8.90
2023-03-10T03:43:40.997Z,8.90
2023-03-10T03:46:07.590Z,8.90
2023-03-10T03:48:34.110Z,8.90
2023-03-10T03:51:00.591Z,9.00
2023-03-10T03:53:27.070Z,8.90
2023-03-10T03:55:58.528Z,9.00
2023-03-10T03:58:25.008Z,8.90
2023-03-10T04:00:51.946Z,9.00
2023-03-10T04:03:18.480Z,8.90
2023-03-10T04:05:44.992Z,9.00
2023-03-10T04:08:11.466Z,9.00
2023-03-10T04:10:37.962Z,9.00
2023-03-10T04:13:04.439Z,8.90
2023-03-10T04:15:30.977Z,8.90
2023-03-10T04:17:57.502Z,9.00
2023-03-10T04:20:23.990Z,9.00
2023-03-10T04:22:50.453Z,9.00
2023-03-10T04:25:16.950Z,9.00
2023-03-10T04:27:43.412Z,9.00
2023-03-10T04:30:09.882Z,9.00
2023-03-10T04:32:36.468Z,9.00
2023-03-10T04:35:03.017Z,9.00
2023-03-10T04:37:29.502Z,9.00
2023-03-10T04:39:55.956Z,9.00
2023-03-10T04:42:22.455Z,9.00
2023-03-10T04:44:48.920Z,9.00
2023-03-10T04:47:15.410Z,9.00
2023-03-10T04:49:41.952Z,9.00
2023-03-10T04:52:08.438Z,9.00
2023-03-10T04:54:34.962Z,9.00
2023-03-10T04:57:01.444Z,9.00
2023-03-10T04:59:27.917Z,9.00
2023-03-10T05:01:54.453Z,9.00
2023-03-10T05:04:21.003Z,9.00
2023-03-10T05:06:52.600Z,9.00
2023-03-10T05:09:19.078Z,9.00
2023-03-10T05:11:45.561Z,9.00
2023-03-10T05:14:12.027Z,9.00
2023-03-10T05:16:38.526Z,9.00
2023-03-10T05:19:05.007Z,8.90
2023-03-10T05:21:31.517Z,9.00
2023-03-10T05:23:57.998Z,9.00
2023-03-10T05:26:24.489Z,9.00
2023-03-10T05:28:50.978Z,9.00
2023-03-10T05:31:17.562Z,9.00
2023-03-10T05:33:44.086Z,9.00
2023-03-10T05:36:10.623Z,9.00
2023-03-10T05:38:37.211Z,9.00
2023-03-10T05:41:03.702Z,9.00
2023-03-10T05:43:34.816Z,9.00
2023-03-10T05:46:01.332Z,9.00
2023-03-10T05:48:27.807Z,9.00
2023-03-10T05:50:54.311Z,9.00
2023-03-10T05:53:20.787Z,9.00
2023-03-10T05:55:47.268Z,9.00
2023-03-10T05:58:13.729Z,9.00
2023-03-10T06:00:40.312Z,9.00
2023-03-10T06:03:06.884Z,9.00
2023-03-10T06:05:33.493Z,9.00
2023-03-10T06:07:59.966Z,9.00
2023-03-10T06:10:26.463Z,9.00
2023-03-10T06:12:52.946Z,9.00
2023-03-10T06:15:19.446Z,9.00
2023-03-10T06:17:45.947Z,9.00
2023-03-10T06:20:12.425Z,9.00
2023-03-10T06:22:40.653Z,9.00
2023-03-10T06:25:07.134Z,9.00
2023-03-10T06:27:33.610Z,9.00
2023-03-10T06:30:00.130Z,9.00
2023-03-10T06:32:26.684Z,9.00
2023-03-10T06:34:53.242Z,9.00
2023-03-10T06:37:22.675Z,9.00
2023-03-10T06:39:49.176Z,9.00
2023-03-10T06:42:15.651Z,9.00
2023-03-10T06:44:42.143Z,9.00
2023-03-10T06:47:08.662Z,9.00
2023-03-10T06:49:35.139Z,9.00
2023-03-10T06:52:01.648Z,9.00
2023-03-10T06:54:29.242Z,9.00
2023-03-10T06:56:55.711Z,9.00
2023-03-10T06:59:22.181Z,9.00
2023-03-10T07:01:52.698Z,9.10
2023-03-10T07:04:19.217Z,9.00
2023-03-10T07:06:45.753Z,9.00
2023-03-10T07:09:12.223Z,9.00
2023-03-10T07:11:38.708Z,9.00
2023-03-10T07:14:05.173Z,9.00
2023-03-10T07:16:31.667Z,9.00
2023-03-10T07:18:58.185Z,9.00
2023-03-10T07:21:28.709Z,9.00
2023-03-10T07:23:55.197Z,9.00
2023-03-10T07:26:21.904Z,9.00
2023-03-10T07:28:48.399Z,9.00
2023-03-10T07:31:14.963Z,9.00
2023-03-10T07:33:41.478Z,9.10
2023-03-10T07:36:08.105Z,9.00
2023-03-10T07:38:34.664Z,9.10
2023-03-10T07:41:02.144Z,9.10
2023-03-10T07:43:28.702Z,9.10
2023-03-10T07:45:55.483Z,9.10
2023-03-10T07:48:22.024Z,9.10
2023-03-10T07:50:48.551Z,9.10
2023-03-10T07:53:15.027Z,9.10
2023-03-10T07:55:41.531Z,9.00
2023-03-10T07:58:08.017Z,9.00
2023-03-10T08:00:34.496Z,9.10
2023-03-10T08:03:00.981Z,9.10
2023-03-10T08:05:27.503Z,9.10
2023-03-10T08:07:54.050Z,9.10
2023-03-10T08:10:20.509Z,9.10
2023-03-10T08:12:47.043Z,9.10
2023-03-10T08:15:13.536Z,9.10
2023-03-10T08:17:40.554Z,9.10
2023-03-10T08:20:07.080Z,9.10
2023-03-10T08:22:33.578Z,9.10
2023-03-10T08:25:00.030Z,9.10
2023-03-10T08:27:28.883Z,9.10
2023-03-10T08:29:55.668Z,9.10
2023-03-10T08:32:22.265Z,9.10
2023-03-10T08:34:48.755Z,9.10
2023-03-10T08:37:15.265Z,9.10
2023-03-10T08:39:41.749Z,9.10
2023-03-10T08:42:08.307Z,9.10
2023-03-10T08:44:34.826Z,9.10
2023-03-10T08:47:01.372Z,9.10
2023-03-10T08:49:27.962Z,9.10
2023-03-10T08:51:54.462Z,9.10
2023-03-10T08:54:20.934Z,9.10
2023-03-10T08:56:47.454Z,9.10
2023-03-10T08:59:13.936Z,9.10
2023-03-10T09:01:40.532Z,9.20
2023-03-10T09:04:07.074Z,9.10
2023-03-10T09:06:33.547Z,9.10
2023-03-10T09:09:00.028Z,9.10
2023-03-10T09:11:26.516Z,9.10
2023-03-10T09:13:52.986Z,9.10
2023-03-10T09:16:19.482Z,9.10
2023-03-10T09:18:45.978Z,9.10
2023-03-10T09:21:12.468Z,9.10
2023-03-10T09:23:38.935Z,9.10
2023-03-10T09:26:05.396Z,9.10
2023-03-10T09:28:31.906Z,9.10
2023-03-10T09:30:58.389Z,9.10
2023-03-10T09:33:24.883Z,9.10
2023-03-10T09:36:05.883Z,9.10
2023-03-10T09:38:33.371Z,9.10
2023-03-10T09:40:59.840Z,9.10
2023-03-10T09:43:26.322Z,9.10
2023-03-10T09:45:52.851Z,9.10
2023-03-10T09:48:19.382Z,9.10
2023-03-10T09:50:45.856Z,9.10
2023-03-10T09:53:12.377Z,9.20
2023-03-10T09:55:47.330Z,9.10
2023-03-10T09:58:14.663Z,9.10
2023-03-10T10:00:41.136Z,9.10
2023-03-10T10:03:09.169Z,9.10
2023-03-10T10:05:35.803Z,9.10
2023-03-10T10:08:02.277Z,9.20
2023-03-10T10:10:28.764Z,9.20
2023-03-10T10:12:55.226Z,9.20
2023-03-10T10:15:21.686Z,9.20
2023-03-10T10:17:55.130Z,9.20
2023-03-10T10:20:27.001Z,9.20
2023-03-10T10:22:53.490Z,9.20
2023-03-10T10:25:22.848Z,9.20
2023-03-10T10:27:49.306Z,9.20
2023-03-10T10:30:15.801Z,9.20
2023-03-10T10:32:44.436Z,9.20
2023-03-10T10:35:11.791Z,9.20
2023-03-10T10:37:41.298Z,9.20
2023-03-10T10:40:09.386Z,9.20
2023-03-10T10:42:35.947Z,9.20
2023-03-10T10:45:02.473Z,9.30
2023-03-10T10:47:28.945Z,9.20
2023-03-10T10:49:55.458Z,9.30
2023-03-10T10:52:22.008Z,9.20
2023-03-10T10:54:48.533Z,9.20
2023-03-10T10:57:15.000Z,9.20
2023-03-10T10:59:41.504Z,9.20
2023-03-10T11:02:08.020Z,9.20
2023-03-10T11:04:34.551Z,9.20
2023-03-10T11:07:01.063Z,9.30
2023-03-10T11:09:27.554Z,9.20
2023-03-10T11:11:54.046Z,9.20
2023-03-10T11:14:20.520Z,9.20
2023-03-10T11:16:47.028Z,9.30
2023-03-10T11:19:13.509Z,9.20
2023-03-10T11:21:39.986Z,9.20
2023-03-10T11:24:06.482Z,9.20
2023-03-10T11:26:32.967Z,9.20
2023-03-10T11:28:59.444Z,9.30
2023-03-10T11:31:26.057Z,9.30
2023-03-10T11:33:52.614Z,9.30
2023-03-10T11:36:19.184Z,9.30
2023-03-10T11:38:45.727Z,9.30
2023-03-10T11:41:16.899Z,9.30
2023-03-10T11:43:43.371Z,9.30
2023-03-10T11:46:09.922Z,9.30
2023-03-10T11:48:36.438Z,9.30
2023-03-10T11:51:02.933Z,9.30
2023-03-10T11:53:29.394Z,9.30
2023-03-10T11:55:55.881Z,9.30
2023-03-10T11:58:22.906Z,9.30
2023-03-10T12:00:49.424Z,9.30
2023-03-10T12:03:15.991Z,9.30
2023-03-10T12:05:42.630Z,9.30
2023-03-10T12:08:09.191Z,9.30
2023-03-10T12:10:35.687Z,9.30
2023-03-10T12:13:02.146Z,9.30
2023-03-10T12:15:28.646Z,9.30
2023-03-10T12:17:55.142Z,9.30
2023-03-10T12:20:21.641Z,9.30
2023-03-10T12:22:48.118Z,9.30
2023-03-10T12:25:14.614Z,9.30
2023-03-10T12:27:41.077Z,9.30
2023-03-10T12:30:07.550Z,9.30
2023-03-10T12:32:34.102Z,9.30
2023-03-10T12:35:00.603Z,9.30
2023-03-10T12:37:28.944Z,9.30
2023-03-10T12:39:55.404Z,9.30
2023-03-10T12:42:21.893Z,9.30
2023-03-10T12:44:48.320Z,9.30
2023-03-10T12:47:14.851Z,9.30
2023-03-10T12:49:41.388Z,9.30
2023-03-10T12:52:07.865Z,9.30
2023-03-10T12:54:34.333Z,9.30
2023-03-10T12:57:00.816Z,9.30
2023-03-10T12:59:27.275Z,9.30
2023-03-10T13:01:56.244Z,9.30
2023-03-10T13:04:22.965Z,9.30
2023-03-10T13:06:49.438Z,9.30
2023-03-10T13:09:15.913Z,9.30
2023-03-10T13:11:42.396Z,9.30
2023-03-10T13:14:08.875Z,9.30
2023-03-10T13:16:35.386Z,9.40
2023-03-10T13:19:01.884Z,9.30
2023-03-10T13:21:28.362Z,9.30
2023-03-10T13:23:54.822Z,9.30
2023-03-10T13:26:21.301Z,9.40
2023-03-10T13:28:47.783Z,9.30
2023-03-10T13:31:14.302Z,9.30
2023-03-10T13:33:52.314Z,9.30
2023-03-10T13:36:20.012Z,9.30
2023-03-10T13:38:46.480Z,9.30
2023-03-10T13:41:12.962Z,9.30
2023-03-10T13:43:39.425Z,9.30
2023-03-10T13:46:05.950Z,9.30
2023-03-10T13:48:32.459Z,9.30
2023-03-10T13:50:58.977Z,9.40
2023-03-10T13:53:25.446Z,9.30
2023-03-10T13:55:51.927Z,9.30
2023-03-10T13:58:18.402Z,9.30
2023-03-10T14:00:44.899Z,9.30
2023-03-10T14:03:11.452Z,9.30
2023-03-10T14:05:37.934Z,9.30
2023-03-10T14:08:04.410Z,9.30
2023-03-10T14:10:30.873Z,9.30
2023-03-10T14:12:57.341Z,9.30
2023-03-10T14:15:23.816Z,9.40
2023-03-10T14:17:50.299Z,9.30
2023-03-10T14:20:16.995Z,9.40
2023-03-10T14:22:43.473Z,9.40
2023-03-10T14:25:09.952Z,9.40
2023-03-10T14:27:36.416Z,9.30
2023-03-10T14:30:02.902Z,9.30
2023-03-10T14:32:29.410Z,9.40
2023-03-10T14:34:55.956Z,9.40
2023-03-10T14:37:22.450Z,9.30
2023-03-10T14:39:48.934Z,9.40
2023-03-10T14:42:15.420Z,9.40
2023-03-10T14:44:41.878Z,9.40
2023-03-10T14:47:08.600Z,9.30
2023-03-10T14:49:35.183Z,9.30
2023-03-10T14:52:01.659Z,9.30
2023-03-10T14:54:28.163Z,9.30
2023-03-10T14:56:54.624Z,9.30
2023-03-10T14:59:21.088Z,9.30
2023-03-10T15:01:47.645Z,9.30
2023-03-10T15:04:14.172Z,9.30
2023-03-10T15:06:40.669Z,9.30
2023-03-10T15:09:11.096Z,9.30
2023-03-10T15:11:37.849Z,9.30
2023-03-10T15:14:04.400Z,9.40
2023-03-10T15:16:30.905Z,9.40
2023-03-10T15:18:57.398Z,9.40
2023-03-10T15:21:23.891Z,9.40
2023-03-10T15:23:50.390Z,9.40
2023-03-10T15:26:16.864Z,9.30
2023-03-10T15:28:43.379Z,9.30
2023-03-10T15:31:09.947Z,9.30
2023-03-10T15:33:36.460Z,9.30
2023-03-10T15:36:03.054Z,9.30
2023-03-10T15:38:29.748Z,9.30
2023-03-10T15:40:56.219Z,9.40
2023-03-10T15:43:22.725Z,9.30
2023-03-10T15:45:49.260Z,9.30
2023-03-10T15:48:15.802Z,9.30
2023-03-10T15:50:42.307Z,9.30
2023-03-10T15:53:11.088Z,9.30
2023-03-10T15:55:37.579Z,9.30
2023-03-10T15:58:04.060Z,9.30
2023-03-10T16:00:30.543Z,9.30
2023-03-10T16:02:57.021Z,9.30
2023-03-10T16:05:23.498Z,9.30
2023-03-10T16:07:49.977Z,9.30
2023-03-10T16:10:16.470Z,9.30
2023-03-10T16:12:42.938Z,9.30
2023-03-10T16:15:09.429Z,9.30
2023-03-10T16:17:35.897Z,9.30
2023-03-10T16:20:05.132Z,9.30
2023-03-10T16:22:31.595Z,9.30
2023-03-10T16:24:59.140Z,9.30
2023-03-10T16:27:25.623Z,9.30
2023-03-10T16:29:52.347Z,9.30
2023-03-10T16:32:18.916Z,9.30
2023-03-10T16:34:45.421Z,9.30
2023-03-10T16:37:11.892Z,9.30
2023-03-10T16:39:38.378Z,9.30
2023-03-10T16:42:04.872Z,9.30
2023-03-10T16:44:31.372Z,9.30
2023-03-10T16:46:57.852Z,9.30
2023-03-10T16:49:24.378Z,9.30
2023-03-10T16:51:50.860Z,9.30
2023-03-10T16:54:17.334Z,9.30
2023-03-10T16:56:43.886Z,9.30
2023-03-10T16:59:10.389Z,9.30
2023-03-10T17:01:36.916Z,9.30
2023-03-10T17:04:03.501Z,9.30
2023-03-10T17:06:30.094Z,9.20
2023-03-10T17:08:56.573Z,9.20
2023-03-10T17:11:23.044Z,9.20
2023-03-10T17:13:49.518Z,9.20
2023-03-10T17:16:16.115Z,9.20
2023-03-10T17:18:42.614Z,9.20
2023-03-10T17:21:09.096Z,9.20
2023-03-10T17:23:35.584Z,9.20
2023-03-10T17:26:02.074Z,9.20
2023-03-10T17:28:28.565Z,9.20
2023-03-10T17:30:55.049Z,9.20
2023-03-10T17:33:21.520Z,9.20
2023-03-10T17:35:48.075Z,9.20
2023-03-10T17:38:14.575Z,9.20
2023-03-10T17:40:41.586Z,9.20
2023-03-10T17:43:17.560Z,9.20
2023-03-10T17:45:54.587Z,9.20
2023-03-10T17:48:21.070Z,9.10
2023-03-10T17:50:47.576Z,9.20
2023-03-10T17:53:14.130Z,9.10
2023-03-10T17:55:40.649Z,9.10
2023-03-10T17:58:07.122Z,9.10
2023-03-10T18:00:33.624Z,9.10
2023-03-10T18:03:00.200Z,9.10
2023-03-10T18:05:26.752Z,9.10
2023-03-10T18:07:53.216Z,9.10
2023-03-10T18:10:19.718Z,9.00
2023-03-10T18:12:46.183Z,9.10
2023-03-10T18:15:12.688Z,9.00
2023-03-10T18:17:39.152Z,9.00
2023-03-10T18:20:05.637Z,9.10
2023-03-10T18:22:32.110Z,9.00
2023-03-10T18:24:58.595Z,9.00
2023-03-10T18:27:25.090Z,9.00
2023-03-10T18:29:51.569Z,9.00
2023-03-10T18:32:18.060Z,9.00
2023-03-10T18:34:44.546Z,9.00
2023-03-10T18:37:11.038Z,9.00
2023-03-10T18:39:38.461Z,9.00
2023-03-10T18:42:06.441Z,9.00
2023-03-10T18:44:32.905Z,9.00
2023-03-10T18:46:59.356Z,9.00
2023-03-10T18:49:25.838Z,8.90
2023-03-10T18:51:52.321Z,8.90
2023-03-10T18:54:18.789Z,8.90
2023-03-10T18:56:45.253Z,8.90
2023-03-10T18:59:11.737Z,8.90
2023-03-10T19:01:38.287Z,8.90
2023-03-10T19:04:04.762Z,9.00
2023-03-10T19:06:31.243Z,9.00
2023-03-10T19:08:57.703Z,8.90
2023-03-10T19:11:29.318Z,8.90
2023-03-10T19:13:55.792Z,8.90
2023-03-10T19:16:22.326Z,8.90
2023-03-10T19:18:48.862Z,8.90
2023-03-10T19:21:15.348Z,8.80
2023-03-10T19:23:41.780Z,8.80
2023-03-10T19:26:08.304Z,8.90
2023-03-10T19:28:34.787Z,8.80
2023-03-10T19:31:01.301Z,8.80
2023-03-10T19:33:27.791Z,8.80
2023-03-10T19:35:54.288Z,8.80
2023-03-10T19:38:20.807Z,8.80
2023-03-10T19:40:47.313Z,8.80
2023-03-10T19:43:13.786Z,8.80
2023-03-10T19:45:40.267Z,8.80
2023-03-10T19:48:06.748Z,8.80
2023-03-10T19:50:33.235Z,8.80
2023-03-10T19:52:59.737Z,8.80
2023-03-10T19:55:26.216Z,8.80
2023-03-10T19:57:52.709Z,8.80
2023-03-10T20:00:19.234Z,8.80
2023-03-10T20:02:45.839Z,8.70
2023-03-10T20:05:12.328Z,8.70
2023-03-10T20:07:38.797Z,8.70
2023-03-10T20:10:05.314Z,8.70
2023-03-10T20:12:31.779Z,8.80
2023-03-10T20:14:58.246Z,8.80
2023-03-10T20:17:24.719Z,8.80
2023-03-10T20:19:51.207Z,8.70
2023-03-10T20:22:17.679Z,8.70
2023-03-10T20:24:44.136Z,8.70
2023-03-10T20:27:10.615Z,8.70
2023-03-10T20:29:37.103Z,8.70
2023-03-10T20:32:03.615Z,8.70
2023-03-10T20:34:30.113Z,8.70
2023-03-10T20:36:56.600Z,8.80
2023-03-10T20:39:23.084Z,8.70
2023-03-10T20:41:49.588Z,8.70
2023-03-10T20:44:16.050Z,8.80
2023-03-10T20:46:47.356Z,8.80
2023-03-10T20:49:13.835Z,8.70
2023-03-10T20:51:40.315Z,8.70
2023-03-10T20:54:06.789Z,8.70
2023-03-10T20:56:33.290Z,8.70
2023-03-10T20:58:59.770Z,8.70
2023-03-10T21:01:26.314Z,8.70
2023-03-10T21:03:53.380Z,8.70
2023-03-10T21:06:19.867Z,8.70
2023-03-10T21:08:46.344Z,8.60
2023-03-10T21:11:12.864Z,8.70
2023-03-10T21:13:39.342Z,8.70
2023-03-10T21:16:05.844Z,8.60
2023-03-10T21:18:32.310Z,8.60
2023-03-10T21:23:49.530Z,8.60
2023-03-10T21:26:16.036Z,8.60
2023-03-10T21:28:42.532Z,8.60
2023-03-10T21:31:09.149Z,8.60
2023-03-10T21:33:35.658Z,8.60
2023-03-10T21:36:02.187Z,8.70
2023-03-10T21:38:28.688Z,8.70
2023-03-10T21:40:55.200Z,8.60
2023-03-10T21:43:21.683Z,8.70
2023-03-10T21:45:48.190Z,8.60
2023-03-10T21:48:14.667Z,8.70
2023-03-10T21:50:41.140Z,8.60
2023-03-10T21:53:07.656Z,8.60
2023-03-10T21:55:34.196Z,8.60
2023-03-10T21:58:00.666Z,8.60
2023-03-10T22:00:27.170Z,8.60
2023-03-10T22:02:53.656Z,8.60
2023-03-10T22:05:20.159Z,8.60
2023-03-10T22:07:46.634Z,8.60
2023-03-10T22:10:13.110Z,8.60
2023-03-10T22:12:39.585Z,8.60
2023-03-10T22:15:06.053Z,8.60
2023-03-10T22:17:32.529Z,8.70
2023-03-10T22:19:58.986Z,8.60
2023-03-10T22:22:25.475Z,8.60
2023-03-10T22:24:51.951Z,8.60
2023-03-10T22:27:18.429Z,8.60
2023-03-10T22:29:47.398Z,8.60
2023-03-10T22:32:17.585Z,8.60
2023-03-10T22:34:44.108Z,8.60
2023-03-10T22:37:10.604Z,8.60
2023-03-10T22:39:37.091Z,8.70
2023-03-10T22:42:03.544Z,8.60
2023-03-10T22:44:30.032Z,8.60
2023-03-10T22:46:56.575Z,8.60
2023-03-10T22:49:23.076Z,8.60
2023-03-10T22:51:49.548Z,8.60
2023-03-10T22:54:16.014Z,8.60
2023-03-10T22:56:42.585Z,8.60
2023-03-10T22:59:09.067Z,8.60
2023-03-10T23:01:35.595Z,8.60
2023-03-10T23:04:02.131Z,8.60
2023-03-10T23:06:28.629Z,8.60
2023-03-10T23:08:55.068Z,8.60
2023-03-10T23:11:21.558Z,8.60
2023-03-10T23:13:48.035Z,8.60
2023-03-10T23:16:14.565Z,8.60
2023-03-10T23:18:41.102Z,8.60
2023-03-10T23:21:07.600Z,8.50
2023-03-10T23:23:34.064Z,8.60
2023-03-10T23:26:00.567Z,8.70
2023-03-10T23:28:27.057Z,8.60
2023-03-10T23:30:53.557Z,8.60
2023-03-10T23:33:20.034Z,8.60
2023-03-10T23:35:46.591Z,8.60
2023-03-10T23:38:13.098Z,8.60
2023-03-10T23:40:39.591Z,8.60
2023-03-10T23:43:11.638Z,8.60
2023-03-10T23:45:38.214Z,8.60
2023-03-10T23:48:04.828Z,8.60
2023-03-10T23:50:31.339Z,8.60
2023-03-10T23:52:57.806Z,8.60
2023-03-10T23:55:24.292Z,8.60
2023-03-10T23:57:50.786Z,8.60
